Circleville, OH (43113)

1:40 AM EDT on October 02, 2014 (GMT -0400)
Pickaway-Fairfield Line | Change Station
CLOSE
Current Station
Personal Weather Station
Location: Ashville, OH
Elevation: 815 ft
Nearby Weather Stations

Elev 815 ft 39.71 °N, 82.84 °W | Updated 3 minutes ago

Clear
Clear
50.4 °F
Feels Like 50.4 °F
N
0.0
Wind Variable Wind from ENE

Today
High -- | Low -- °F
--% Chance of Precip.
Yesterday
High -- | Low -- °F
Precip. -- in
7:28 AM 7:12 PM
First Quarter, 55% visible
Pressure 30.04 in
Visibility 5.0 miles
Clouds Clear
Dew Point 48 °F
Humidity 93%
Rainfall 0.00 in
Snow Depth Not available.
UV 0 out of 12
Pollen 2.10 out of 12
Ozone Good
PM2.5 Moderate
Flu Activity Not available.
METAR KLCK 020535Z AUTO 00000KT 5SM BR CLR 10/09 A3004 RMK AO2 T01000091

More Conditions Fewer Conditions

Pressure 30.04 in
Visibility 5.0 miles
Clouds Clear
Dew Point 48 °F
Humidity 93%
Rainfall 0.00 in
Snow Depth Not available.
UV 0 out of 12
Pollen 2.10 out of 12
Ozone Good
PM2.5 Moderate
Flu Activity Not available.
METAR KLCK 020535Z AUTO 00000KT 5SM BR CLR 10/09 A3004 RMK AO2 T01000091

More Conditions Fewer Conditions

10-Day Weather Forecast

Almanac

Astronomy

Oct. 02, 2014 Rise Set
Actual Time 7:28 AM EDT 7:12 PM EDT
Civil Twilight 7:02 AM EDT 7:39 PM EDT
Nautical Twilight 6:30 AM EDT 8:10 PM EDT
Astronomical Twilight 5:59 AM EDT 8:41 PM EDT
Moon 3:16 PM EDT 12:45 AM EDT
Length of Visible Light 12h 37m
Length of Day
11h 43m
Tomorrow will be 2m 33s shorter.
First Quarter, 55% of the Moon is Illuminated
Today
First Quarter
Oct 8
Full
Oct 15
Last Quarter
Oct 23
New
Oct 30
First Quarter

Today's Extremes

State Highs State Lows

Community

WunderPhotos

Upload Photos

1,758,197 photos uploaded!

Nearby

Air Quality

  Air Quality AQ Index Pollutant
Yesterday Good
PM2.5
Yesterday Good
OZONE
Current Moderate
PM2.5
Current Good
OZONE
Thursday Moderate
PM2.5
Thursday Moderate
OZONE
Friday Good
PM2.5
Friday Good
OZONE
Saturday Good
OZONE
Saturday Good
PM2.5
Sunday Good
OZONE
Sunday Good
PM2.5
Monday Good
OZONE
Monday Good
PM2.5

Snow Depth

Station Depth Elevation
No new snow has been reported.

Earthquake Activity

City Distance Mag. Time & Date
No recent earthquake activity has been reported nearby.
Minimum magnitude displayed is 2.5.

Coastal Water Temperatures

Place Temperature
No Stations Reporting

Nearby Weather Stations